Airfield :







YOU CAN JOIN US ON...

 
LOGIN :

Register | Disclaimer

   EN    FR    IT 

 









Legend :    VFR   Marginal VFR   IFR   Intensive IFR   Very Intensive IFR
Visi :
Ceiling :
>= 8 km
>= 3000ft
5 to 8 km
1000 to 3000 ft
1500m to 5 km
500 to 1000 ft
800 to 1500m
200 to 500 ft
< 800m
< 200 ft
Symbols :   Thunderstorms  Fog  Heavy snow  Heavy precipitations  Wind > 20 kt






- Airport Elevation : 1709 ft
- IATA code : YKL


CYKL - Schefferville

CURRENT METAR :
  • 072000Z AUTO 34009G15KT 320V020 9SM CLR M09/M18 A2967 RMK SLP092

EXPIRED METARs :
  • 071900Z AUTO 34009KT 310V050 9SM CLR M09/M18 A2966 RMK SLP091
  • 071800Z AUTO 02009KT 9SM CLR M11/M18 A2966 RMK SLP091

TAF TAF CYKL
Valid from the 07 at 20:00 until the 08 at 08:00 UTC


071938Z 0720/0808 34010KT P6SM SKC
FM080400 34012G22KT P6SM SCT015
BECMG 0804/0806 BKN015 RMK FCST BASED ON AUTO OBS. NXT FCST BY 080200Z



MET'MAP, your aeronautical weather chart ! - Copyright ORBIFLY December 2007 - Disclaimer

ORBIFLY MET'MAP TEAM :

Programming & Development : Alexandra Zaïnal
Concept & original design : Baudouin d'Aumeries
Assistance for programming : Marc-Olivier Méhu
Technical & hardware support : Manuel Goepfert

Contact : metmap@orbifly.com




SOURCES & CREDITS :

   NOAA